Scheibbs, Austria
Current Conditions -  °F | °C
As of 8:50 AM on Friday 31 Oct 2014 (Local Time) from LOWL Reporting Station
Haze Haze  
Wind Chill: 45°   Ceiling: 500
Heat Index: 45°   Visibility: 2mi
Dew Point: 45°   Wind: 3mph
Humidity: 100%   Direction: 330°NNW
Pressure: 30.36"   Gusts: NA
Location:  48.01°N, 15.17°E
Report Text: LOWL 310650Z 33003KT 3300 BR SCT003 BKN005 07/07 Q1028 BECMG 5000
Loading
Personal Weather Stations






























Interactive Weather Map
Tropical Storm Tracking
New forecast layout! Learn more

10-Day Weather Forecast

Advertisements
Track Severe Weather on mobile